Time;durP1;ratioP1;P1;durP2;ratioP2;P2;SDS_P1;SDS_P2;PMS_P1;PMS_P2;Temp;Humidity;BMP_temperature;BMP_pressure;BME280_temperature;BME280_humidity;BME280_pressure;Samples;Min_cycle;Max_cycle;Signal;HPM_P1;HPM_P2
2021/12/04 00:00:48;;;;;;;7.25;4.15;;;-0.50;89.50;;;;;;5058562;28;20041;-65
2021/12/04 00:03:17;;;;;;;5.40;3.80;;;-0.60;88.20;;;;;;5060345;28;20024;-66
2021/12/04 00:05:51;;;;;;;7.90;4.50;;;-0.60;89.00;;;;;;5062599;28;20067;-66
2021/12/04 00:08:16;;;;;;;9.77;6.25;;;-0.60;89.40;;;;;;5055713;28;20048;-66
2021/12/04 00:10:42;;;;;;;17.08;8.40;;;-0.70;89.30;;;;;;5060208;28;20025;-66
2021/12/04 00:13:08;;;;;;;13.40;8.20;;;-0.80;89.60;;;;;;5055866;28;20061;-65
2021/12/04 00:15:34;;;;;;;13.02;8.27;;;-0.70;90.20;;;;;;5053738;28;20039;-66
2021/12/04 00:18:00;;;;;;;19.52;10.52;;;-0.70;90.00;;;;;;5051421;28;20107;-65
2021/12/04 00:20:30;;;;;;;17.83;11.48;;;-0.70;90.20;;;;;;5060253;28;20103;-65
2021/12/04 00:22:59;;;;;;;14.20;7.85;;;-0.70;90.30;;;;;;5061909;28;20032;-66
2021/12/04 00:25:26;;;;;;;16.35;9.40;;;-0.70;90.10;;;;;;5058653;28;20024;-66
2021/12/04 00:27:52;;;;;;;14.48;7.75;;;-0.80;90.20;;;;;;5061837;28;20024;-66
2021/12/04 00:30:22;;;;;;;15.02;9.07;;;-0.80;90.50;;;;;;5054856;28;20531;-66
2021/12/04 00:33:00;;;;;;;8.55;5.72;;;-0.80;90.60;;;;;;5061790;28;20029;-66
2021/12/04 00:51:15;;;;;;;9.50;5.38;;;-0.80;90.40;;;;;;5058648;28;20086;-66
2021/12/04 00:53:41;;;;;;;7.00;4.05;;;-0.80;90.40;;;;;;5061690;28;20028;-66
2021/12/04 00:56:07;;;;;;;5.75;3.90;;;-0.80;90.50;;;;;;5063843;28;20521;-66
2021/12/04 00:58:32;;;;;;;9.35;4.97;;;-0.90;90.30;;;;;;5059861;28;20029;-65
2021/12/04 01:00:58;;;;;;;6.97;3.83;;;-0.90;90.60;;;;;;5061645;28;20078;-66
2021/12/04 01:03:24;;;;;;;9.18;6.10;;;-0.90;90.20;;;;;;5060434;28;20039;-66
2021/12/04 01:05:50;;;;;;;12.65;6.60;;;-1.00;90.40;;;;;;5063334;28;20032;-66
2021/12/04 01:08:16;;;;;;;6.75;4.88;;;-0.90;90.70;;;;;;5060886;28;20401;-66
2021/12/04 01:10:42;;;;;;;12.57;7.95;;;-0.90;90.90;;;;;;5061696;28;20021;-66
2021/12/04 01:13:11;;;;;;;10.57;6.55;;;-1.00;90.90;;;;;;5064723;28;20017;-66
2021/12/04 01:15:42;;;;;;;8.90;5.47;;;-1.00;90.70;;;;;;5055100;28;20482;-67
2021/12/04 01:18:10;;;;;;;7.65;4.05;;;-1.00;90.30;;;;;;5064440;28;20029;-67
2021/12/04 01:20:35;;;;;;;6.28;4.20;;;-1.10;90.00;;;;;;5059254;28;20037;-66
2021/12/04 01:23:02;;;;;;;5.47;3.08;;;-1.20;90.00;;;;;;5068430;28;20028;-67
2021/12/04 01:25:27;;;;;;;6.78;2.50;;;-1.30;90.10;;;;;;5061987;28;20077;-66
2021/12/04 01:27:56;;;;;;;3.15;2.10;;;-1.30;90.20;;;;;;5063406;28;20044;-67
2021/12/04 01:30:22;;;;;;;4.45;1.70;;;-1.30;90.70;;;;;;5057149;28;20039;-66
2021/12/04 01:32:47;;;;;;;3.50;1.45;;;-1.30;90.60;;;;;;5061332;28;22080;-66
2021/12/04 01:35:13;;;;;;;7.97;4.40;;;-1.30;90.60;;;;;;5061300;28;20017;-66
2021/12/04 01:37:39;;;;;;;10.70;6.18;;;-1.30;90.50;;;;;;5058027;28;20040;-66
2021/12/04 01:40:05;;;;;;;10.60;6.28;;;-1.30;90.40;;;;;;5062556;28;20506;-67
2021/12/04 01:42:35;;;;;;;12.25;6.85;;;-1.30;90.60;;;;;;5059292;28;20402;-66
2021/12/04 01:45:01;;;;;;;9.13;3.50;;;-1.30;90.90;;;;;;5061855;28;20396;-66
2021/12/04 01:47:27;;;;;;;8.10;4.13;;;-1.40;90.20;;;;;;5060995;28;20646;-66
2021/12/04 01:49:54;;;;;;;7.05;4.38;;;-1.40;90.40;;;;;;5062993;28;20033;-66
2021/12/04 01:52:20;;;;;;;6.07;3.13;;;-1.40;90.30;;;;;;5065596;28;20025;-66
2021/12/04 01:54:46;;;;;;;4.95;2.75;;;-1.50;90.60;;;;;;5061434;28;20521;-67
2021/12/04 01:57:15;;;;;;;2.75;1.50;;;-1.40;90.40;;;;;;5043037;28;20017;-67
2021/12/04 01:59:42;;;;;;;4.45;2.20;;;-1.50;90.00;;;;;;5060054;28;20064;-66
2021/12/04 02:02:08;;;;;;;2.40;1.45;;;-1.50;90.10;;;;;;5060723;28;20035;-67
2021/12/04 02:04:33;;;;;;;4.10;2.15;;;-1.60;90.00;;;;;;5064807;28;20021;-66
2021/12/04 02:07:04;;;;;;;7.15;2.95;;;-1.60;90.20;;;;;;5063793;28;20060;-67
2021/12/04 02:09:31;;;;;;;9.52;6.15;;;-1.60;90.90;;;;;;5062622;28;20083;-66
2021/12/04 02:11:57;;;;;;;13.43;8.00;;;-1.60;91.10;;;;;;5059721;28;20052;-67
2021/12/04 02:14:22;;;;;;;17.08;8.60;;;-1.60;90.90;;;;;;5061869;28;20024;-66
2021/12/04 02:16:49;;;;;;;10.57;6.78;;;-1.50;91.30;;;;;;5062947;28;20025;-67
2021/12/04 02:19:18;;;;;;;3.85;2.47;;;-1.50;91.50;;;;;;5061165;28;20072;-66
2021/12/04 02:21:44;;;;;;;5.45;1.80;;;-1.50;91.10;;;;;;5063082;28;20032;-66
2021/12/04 02:24:09;;;;;;;2.10;1.67;;;-1.50;90.90;;;;;;5061778;28;20035;-67
2021/12/04 02:26:35;;;;;;;5.45;3.05;;;-1.50;90.70;;;;;;5062321;28;20037;-66
2021/12/04 02:29:01;;;;;;;10.35;6.65;;;-1.50;90.70;;;;;;5056504;28;20037;-66
2021/12/04 02:31:27;;;;;;;5.13;3.60;;;-1.50;91.20;;;;;;5059503;28;20029;-66
2021/12/04 02:33:53;;;;;;;3.22;2.40;;;-1.70;91.00;;;;;;5060352;28;20150;-66
2021/12/04 02:36:19;;;;;;;7.20;4.47;;;-1.80;90.90;;;;;;5047252;28;20120;-67
2021/12/04 02:38:50;;;;;;;8.73;6.97;;;-1.80;91.40;;;;;;5061847;28;20040;-66
2021/12/04 02:41:16;;;;;;;8.35;5.63;;;-1.70;91.40;;;;;;5059381;28;20080;-66
2021/12/04 02:43:42;;;;;;;6.38;4.28;;;-1.70;91.60;;;;;;5058406;28;20033;-66
2021/12/04 02:46:08;;;;;;;4.75;3.35;;;-1.70;91.60;;;;;;5062561;28;20039;-66
2021/12/04 02:48:33;;;;;;;6.85;4.35;;;-1.60;91.60;;;;;;5061022;28;20170;-66
2021/12/04 02:50:59;;;;;;;12.88;7.50;;;-1.60;91.50;;;;;;5059702;28;20028;-66
2021/12/04 02:53:25;;;;;;;13.48;8.20;;;-1.50;91.40;;;;;;5060532;28;20158;-67
2021/12/04 02:55:54;;;;;;;12.50;7.35;;;-1.40;91.80;;;;;;5061684;28;20082;-66
2021/12/04 02:58:21;;;;;;;6.82;3.97;;;-1.40;91.40;;;;;;5061625;28;20146;-67
2021/12/04 03:00:48;;;;;;;3.42;2.10;;;-1.50;90.90;;;;;;5059492;28;20037;-66
2021/12/04 03:03:17;;;;;;;2.50;1.70;;;-1.80;90.40;;;;;;5056474;28;20039;-66
2021/12/04 03:05:46;;;;;;;3.58;1.70;;;-2.00;90.20;;;;;;5055890;28;20029;-66
2021/12/04 03:08:12;;;;;;;4.30;2.90;;;-2.20;90.40;;;;;;5056827;28;20075;-66
2021/12/04 03:10:37;;;;;;;3.78;2.45;;;-2.20;90.50;;;;;;5056376;28;20143;-65
2021/12/04 03:13:07;;;;;;;5.10;2.83;;;-2.30;90.70;;;;;;5054639;28;20394;-65
2021/12/04 03:15:33;;;;;;;4.45;2.88;;;-2.30;91.20;;;;;;5054015;28;20398;-65
2021/12/04 03:17:58;;;;;;;4.90;2.75;;;-2.30;91.20;;;;;;5057143;28;20033;-65
2021/12/04 03:20:24;;;;;;;4.97;3.40;;;-2.20;91.20;;;;;;5057512;28;20596;-65
2021/12/04 03:22:58;;;;;;;7.85;3.97;;;-2.20;91.50;;;;;;5055894;28;20032;-65
2021/12/04 03:25:23;;;;;;;7.50;4.10;;;-2.10;91.70;;;;;;5055424;28;20036;-65
2021/12/04 03:27:50;;;;;;;10.40;4.22;;;-2.00;91.50;;;;;;5056271;28;20419;-65
2021/12/04 03:40:58;;;;;;;6.68;4.15;;;-2.20;91.70;;;;;;5055125;28;19923;-65
2021/12/04 03:43:24;;;;;;;5.82;3.78;;;-2.10;91.80;;;;;;5056868;28;20067;-65
2021/12/04 03:45:58;;;;;;;5.68;3.80;;;-2.10;91.40;;;;;;5058071;28;20111;-65
2021/12/04 03:51:01;;;;;;;6.13;3.75;;;-2.00;91.20;;;;;;5055647;28;20184;-66
2021/12/04 03:53:27;;;;;;;6.38;4.32;;;-2.00;91.60;;;;;;5054072;28;20025;-66
2021/12/04 03:55:53;;;;;;;5.72;3.13;;;-1.90;91.70;;;;;;5053317;28;20124;-65
2021/12/04 03:58:19;;;;;;;5.15;2.53;;;-1.90;91.50;;;;;;5054739;28;20039;-65
2021/12/04 04:00:45;;;;;;;5.95;3.75;;;-2.00;91.10;;;;;;5055665;28;20032;-65
2021/12/04 04:03:11;;;;;;;9.88;4.97;;;-2.00;91.40;;;;;;5053510;28;20897;-66
2021/12/04 04:05:37;;;;;;;10.57;5.82;;;-2.00;91.40;;;;;;5053903;28;20116;-66
2021/12/04 04:08:03;;;;;;;11.13;6.88;;;-1.90;91.70;;;;;;5059077;28;20031;-66
2021/12/04 04:10:29;;;;;;;11.77;6.60;;;-1.90;91.60;;;;;;5057099;28;20028;-66
2021/12/04 04:12:54;;;;;;;11.90;6.38;;;-1.90;91.80;;;;;;5058551;28;20141;-67
2021/12/04 04:15:21;;;;;;;15.38;8.23;;;-1.80;91.50;;;;;;5061625;28;20718;-67
2021/12/04 04:17:48;;;;;;;11.85;6.45;;;-1.80;91.30;;;;;;5063410;28;20036;-66
2021/12/04 04:20:17;;;;;;;13.68;6.90;;;-1.80;91.10;;;;;;5061491;28;20024;-66
2021/12/04 04:22:44;;;;;;;10.90;5.47;;;-1.80;91.00;;;;;;5060670;28;20086;-66
2021/12/04 04:25:11;;;;;;;11.98;6.22;;;-1.80;91.20;;;;;;5059053;28;20052;-66
2021/12/04 04:27:37;;;;;;;7.75;4.28;;;-1.80;91.30;;;;;;5062299;28;20398;-66
2021/12/04 04:30:13;;;;;;;4.85;3.25;;;-1.80;91.10;;;;;;5059977;28;20029;-66
2021/12/04 04:32:40;;;;;;;3.58;2.20;;;-1.80;90.80;;;;;;5043446;28;20116;-67
2021/12/04 04:35:10;;;;;;;4.45;2.25;;;-1.90;90.70;;;;;;5061028;28;20059;-66
2021/12/04 04:37:54;;;;;;;4.15;2.30;;;-1.90;90.70;;;;;;5058277;28;20039;-66
2021/12/04 05:02:25;;;;;;;7.20;3.75;;;-1.90;90.40;;;;;;5062417;28;20129;-66
2021/12/04 05:12:59;;;;;;;10.70;5.72;;;-2.30;90.70;;;;;;5064796;28;20032;-66
2021/12/04 05:18:36;;;;;;;5.72;3.13;;;-2.30;90.90;;;;;;5062279;28;20031;-66
2021/12/04 05:20:53;;;;;;;9.77;4.80;;;-2.30;90.80;;;;;;5056158;28;20055;-66
2021/12/04 05:23:20;;;;;;;11.77;4.90;;;-2.30;90.70;;;;;;5063510;28;20078;-66
2021/12/04 05:25:46;;;;;;;11.77;5.32;;;-2.30;90.60;;;;;;5062229;28;20660;-66
2021/12/04 05:28:12;;;;;;;10.57;4.25;;;-2.30;90.70;;;;;;5063585;28;20040;-66
2021/12/04 05:30:38;;;;;;;10.70;5.53;;;-2.30;90.60;;;;;;5065931;28;20033;-66
2021/12/04 05:33:04;;;;;;;11.63;6.53;;;-2.20;90.50;;;;;;5063860;28;20028;-66
2021/12/04 05:35:30;;;;;;;12.70;7.05;;;-2.20;90.50;;;;;;5062836;28;20032;-67
2021/12/04 05:37:57;;;;;;;9.88;5.32;;;-2.20;90.80;;;;;;5061062;28;20118;-66
2021/12/04 05:40:23;;;;;;;11.00;5.88;;;-2.30;91.10;;;;;;5059049;28;20064;-66
2021/12/04 05:42:48;;;;;;;12.18;7.32;;;-2.30;91.50;;;;;;5063367;28;20025;-66
2021/12/04 05:45:18;;;;;;;10.10;5.70;;;-2.20;91.30;;;;;;5064236;28;20797;-66
2021/12/04 05:47:52;;;;;;;3.80;2.30;;;-2.20;90.90;;;;;;5065201;28;20063;-66
2021/12/04 05:55:20;;;;;;;9.40;4.97;;;-2.30;90.60;;;;;;5041155;28;20053;-66
2021/12/04 05:57:46;;;;;;;13.85;7.20;;;-2.30;90.50;;;;;;5061244;28;20043;-66
2021/12/04 06:00:24;;;;;;;13.77;5.68;;;-2.30;90.60;;;;;;5062013;28;20016;-67
2021/12/04 06:02:53;;;;;;;7.22;3.75;;;-2.20;90.90;;;;;;5059915;28;20024;-67
2021/12/04 06:05:18;;;;;;;9.70;5.78;;;-2.30;90.80;;;;;;5058351;28;20043;-67
2021/12/04 06:07:44;;;;;;;11.90;6.72;;;-2.30;90.90;;;;;;5058274;28;20050;-67
2021/12/04 06:10:11;;;;;;;12.07;7.22;;;-2.30;91.10;;;;;;5057050;28;20016;-67
2021/12/04 06:12:37;;;;;;;12.02;7.68;;;-2.20;90.90;;;;;;5064177;28;20024;-67
2021/12/04 06:15:03;;;;;;;13.30;7.53;;;-2.30;91.00;;;;;;5060232;28;20367;-67
2021/12/04 06:17:29;;;;;;;11.38;6.60;;;-2.30;91.10;;;;;;5060619;28;20068;-66
2021/12/04 06:22:41;;;;;;;23.70;9.45;;;-2.20;91.20;;;;;;5058989;28;20055;-66
2021/12/04 06:25:15;;;;;;;9.65;5.97;;;-2.20;91.60;;;;;;5060770;28;20075;-66
2021/12/04 06:27:42;;;;;;;10.77;4.72;;;-2.20;91.10;;;;;;5063164;28;20047;-67
2021/12/04 06:30:12;;;;;;;11.45;7.05;;;-2.20;91.30;;;;;;5062670;28;20032;-67
2021/12/04 06:32:38;;;;;;;34.08;11.75;;;-2.20;91.10;;;;;;5060391;28;20029;-67
2021/12/04 06:35:10;;;;;;;20.80;10.15;;;-2.20;91.40;;;;;;5063467;28;20114;-67
2021/12/04 06:37:36;;;;;;;22.35;11.23;;;-2.20;91.40;;;;;;5057936;28;20028;-67
2021/12/04 06:40:04;;;;;;;4.88;3.22;;;-2.10;91.60;;;;;;5056760;28;20063;-67
2021/12/04 06:42:29;;;;;;;12.35;6.15;;;-2.10;91.20;;;;;;5063069;28;20067;-66
2021/12/04 06:44:56;;;;;;;26.30;14.55;;;-2.10;91.00;;;;;;5062174;28;20066;-67
2021/12/04 06:47:23;;;;;;;31.25;15.10;;;-2.10;91.30;;;;;;5063083;28;20024;-66
2021/12/04 06:49:51;;;;;;;9.32;4.25;;;-2.10;91.80;;;;;;5059552;28;20033;-67
2021/12/04 06:52:19;;;;;;;14.95;7.63;;;-2.00;91.70;;;;;;5061743;28;20033;-66
2021/12/04 06:54:56;;;;;;;17.90;10.27;;;-2.10;91.30;;;;;;5062002;28;20700;-66
2021/12/04 06:57:22;;;;;;;39.28;20.10;;;-2.00;91.20;;;;;;5057361;28;20090;-66
2021/12/04 06:59:50;;;;;;;41.05;21.25;;;-2.00;91.50;;;;;;5061474;28;20028;-66
2021/12/04 07:02:19;;;;;;;30.63;15.40;;;-2.00;91.70;;;;;;5057521;28;20690;-66
2021/12/04 07:04:45;;;;;;;25.25;11.90;;;-1.90;91.60;;;;;;5057428;28;20039;-66
2021/12/04 07:07:11;;;;;;;32.15;17.65;;;-1.90;91.70;;;;;;5061687;28;20107;-66
2021/12/04 07:09:38;;;;;;;35.42;19.38;;;-1.80;91.70;;;;;;5063443;28;20033;-66
2021/12/04 07:12:08;;;;;;;34.22;16.88;;;-1.70;92.00;;;;;;5060270;28;20024;-66
2021/12/04 07:14:34;;;;;;;8.40;4.53;;;-1.70;92.30;;;;;;5061107;28;20028;-67
2021/12/04 07:17:02;;;;;;;9.15;5.30;;;-1.60;92.00;;;;;;5058427;28;20029;-66
2021/12/04 07:19:29;;;;;;;9.13;5.88;;;-1.60;91.70;;;;;;5061864;28;20025;-66
2021/12/04 07:21:55;;;;;;;16.13;7.90;;;-1.60;91.70;;;;;;5060360;28;20138;-67
2021/12/04 07:24:21;;;;;;;16.05;9.30;;;-1.50;91.80;;;;;;5060646;28;20475;-67
2021/12/04 07:26:47;;;;;;;17.98;11.23;;;-1.50;92.30;;;;;;5060731;28;20573;-68
2021/12/04 07:29:13;;;;;;;20.33;10.85;;;-1.50;92.30;;;;;;5058579;28;20173;-69
2021/12/04 07:31:39;;;;;;;17.35;10.27;;;-1.50;92.30;;;;;;5057710;28;20434;-68
2021/12/04 07:34:05;;;;;;;16.50;9.50;;;-1.50;92.50;;;;;;5060660;28;20028;-69
2021/12/04 07:36:31;;;;;;;16.35;8.90;;;-1.40;92.80;;;;;;5057621;28;20025;-69
2021/12/04 07:38:59;;;;;;;16.25;7.90;;;-1.40;93.00;;;;;;5060107;28;20406;-69
2021/12/04 07:41:26;;;;;;;14.57;7.47;;;-1.40;93.40;;;;;;5045028;28;20051;-68
2021/12/04 07:43:52;;;;;;;12.63;7.88;;;-1.30;93.30;;;;;;5059816;28;20059;-68
2021/12/04 07:46:17;;;;;;;16.70;9.18;;;-1.20;93.40;;;;;;5056767;28;20063;-68
2021/12/04 07:48:43;;;;;;;15.55;9.02;;;-1.10;93.40;;;;;;5060216;28;20048;-68
2021/12/04 07:51:09;;;;;;;14.32;9.07;;;-1.00;93.40;;;;;;5057068;28;20028;-68
2021/12/04 07:53:35;;;;;;;19.88;10.93;;;-1.00;93.20;;;;;;5060816;28;20029;-68
2021/12/04 07:56:01;;;;;;;25.05;13.30;;;-0.90;93.20;;;;;;5059888;28;20032;-68
2021/12/04 07:58:27;;;;;;;26.50;13.00;;;-0.90;93.30;;;;;;5060632;28;20094;-68
2021/12/04 08:00:53;;;;;;;16.58;9.93;;;-0.80;93.20;;;;;;5059433;28;20495;-68
2021/12/04 08:03:19;;;;;;;14.85;9.05;;;-0.80;93.30;;;;;;5058487;28;20131;-68
2021/12/04 08:05:46;;;;;;;14.80;8.27;;;-0.80;93.50;;;;;;5058326;28;20775;-68
2021/12/04 08:08:12;;;;;;;12.98;8.23;;;-0.70;93.50;;;;;;5061187;28;20074;-68
2021/12/04 08:10:37;;;;;;;25.08;14.70;;;-0.60;93.60;;;;;;5061618;28;20037;-68
2021/12/04 08:13:03;;;;;;;19.90;13.10;;;-0.50;93.60;;;;;;5058932;28;20025;-68
2021/12/04 08:15:30;;;;;;;56.38;36.65;;;-0.40;93.60;;;;;;5062025;28;20024;-68
2021/12/04 08:17:56;;;;;;;22.27;15.55;;;-0.30;93.60;;;;;;5061106;28;20037;-68
2021/12/04 08:20:25;;;;;;;16.88;11.00;;;-0.20;93.70;;;;;;5060649;28;20020;-68
2021/12/04 08:22:50;;;;;;;25.30;17.10;;;-0.10;93.80;;;;;;5060711;28;20024;-68
2021/12/04 08:25:17;;;;;;;31.98;19.00;;;0.00;94.30;;;;;;5055791;28;20036;-68
2021/12/04 08:27:43;;;;;;;23.52;15.05;;;0.10;94.30;;;;;;5060940;28;20052;-68
2021/12/04 08:30:13;;;;;;;23.42;13.13;;;0.20;94.10;;;;;;5063566;28;20646;-68
2021/12/04 08:32:39;;;;;;;17.83;11.63;;;0.20;94.10;;;;;;5059496;28;20846;-68
2021/12/04 08:35:07;;;;;;;18.48;11.65;;;0.40;93.80;;;;;;5062327;28;20025;-69
2021/12/04 08:37:32;;;;;;;24.70;11.88;;;0.50;93.40;;;;;;5061312;28;20024;-68
2021/12/04 08:39:58;;;;;;;16.75;11.20;;;0.60;93.70;;;;;;5057703;28;20409;-68
2021/12/04 08:42:27;;;;;;;20.75;13.20;;;0.80;93.00;;;;;;5058436;28;20024;-66
2021/12/04 08:44:53;;;;;;;18.13;11.27;;;1.00;92.50;;;;;;5064265;28;20050;-69
2021/12/04 08:47:20;;;;;;;12.88;8.73;;;1.10;92.60;;;;;;5052272;28;20532;-68
2021/12/04 08:49:45;;;;;;;16.50;10.57;;;1.00;92.50;;;;;;5057919;28;20032;-67
2021/12/04 08:52:16;;;;;;;20.13;14.45;;;1.10;92.50;;;;;;5056819;28;20033;-67
2021/12/04 08:54:42;;;;;;;12.05;7.88;;;1.10;92.30;;;;;;5057425;28;20032;-67
2021/12/04 08:57:08;;;;;;;11.55;6.70;;;1.10;92.50;;;;;;5059092;28;20013;-68
2021/12/04 08:59:35;;;;;;;15.07;11.85;;;1.10;92.30;;;;;;5055590;28;20108;-68
2021/12/04 09:02:09;;;;;;;10.40;6.47;;;1.10;92.30;;;;;;5062280;28;20024;-68
2021/12/04 09:04:35;;;;;;;10.05;6.05;;;1.10;92.30;;;;;;5055105;28;20033;-68
2021/12/04 09:07:03;;;;;;;11.45;5.78;;;1.30;92.90;;;;;;5057603;28;20528;-68
2021/12/04 09:09:32;;;;;;;9.25;5.40;;;1.30;92.60;;;;;;5054785;28;20036;-68
2021/12/04 09:12:05;;;;;;;9.13;5.90;;;1.40;92.40;;;;;;5061190;28;20051;-68
2021/12/04 09:14:34;;;;;;;7.03;5.50;;;1.50;92.40;;;;;;5060845;28;20032;-68
2021/12/04 09:17:03;;;;;;;9.88;6.30;;;1.50;92.70;;;;;;5056592;28;20048;-68
2021/12/04 09:19:28;;;;;;;12.70;7.55;;;1.40;93.10;;;;;;5059556;28;20378;-68
2021/12/04 09:21:56;;;;;;;7.53;5.70;;;1.50;92.80;;;;;;5059107;28;20032;-68
2021/12/04 09:24:27;;;;;;;12.95;5.70;;;1.60;93.10;;;;;;5065277;28;21535;-69
2021/12/04 09:32:34;;;;;;;13.77;6.82;;;1.70;92.60;;;;;;5058841;28;20027;-68
2021/12/04 09:59:18;;;;;;;25.48;17.35;;;1.90;92.90;;;;;;5062594;28;20136;-68
2021/12/04 09:59:46;;;;;;;10.15;7.05;;;1.90;92.90;;;;;;5061909;28;20071;-67
2021/12/04 10:35:02;;;;;;;9.82;6.82;;;2.30;92.70;;;;;;5059741;28;20094;-71
2021/12/04 10:37:29;;;;;;;12.50;6.82;;;2.40;92.80;;;;;;5061212;28;20109;-67
2021/12/04 10:40:08;;;;;;;9.95;6.85;;;2.50;92.80;;;;;;5060556;28;20538;-67
2021/12/04 10:42:55;;;;;;;11.27;6.93;;;2.50;92.70;;;;;;5056509;28;20024;-68
2021/12/04 10:46:02;;;;;;;12.40;6.90;;;2.50;92.80;;;;;;5061498;28;20024;-68
2021/12/04 10:48:31;;;;;;;14.25;7.45;;;2.50;93.00;;;;;;5051529;28;20044;-68
2021/12/04 10:53:54;;;;;;;13.02;7.93;;;2.50;92.60;;;;;;5062469;28;20082;-68
2021/12/04 11:01:43;;;;;;;11.65;8.82;;;2.70;92.80;;;;;;5063074;28;20040;-68
2021/12/04 11:04:30;;;;;;;13.60;9.45;;;2.80;92.90;;;;;;5060989;28;20032;-68
2021/12/04 11:43:15;;;;;;;16.17;9.63;;;3.40;91.60;;;;;;5064628;28;20368;-68
2021/12/04 11:46:01;;;;;;;13.20;8.55;;;3.50;91.40;;;;;;5055703;28;20211;-68
2021/12/04 11:48:35;;;;;;;14.30;9.88;;;3.60;91.30;;;;;;5053606;28;20398;-68
2021/12/04 11:51:03;;;;;;;11.23;8.15;;;3.60;91.10;;;;;;5061452;28;20032;-68
2021/12/04 11:53:31;;;;;;;13.48;9.30;;;3.70;91.00;;;;;;5057102;28;20494;-68
2021/12/04 11:55:57;;;;;;;21.27;11.95;;;3.90;90.90;;;;;;5064685;28;20498;-68
2021/12/04 11:58:32;;;;;;;15.98;10.25;;;4.00;90.80;;;;;;5060065;28;20037;-67
2021/12/04 12:01:04;;;;;;;14.55;8.95;;;4.00;90.80;;;;;;5058953;28;20048;-68
2021/12/04 12:03:32;;;;;;;9.75;6.65;;;4.00;90.30;;;;;;5057045;28;20465;-67
2021/12/04 12:06:10;;;;;;;8.73;5.60;;;4.10;88.80;;;;;;5059381;28;20376;-68
2021/12/04 12:08:41;;;;;;;9.77;5.43;;;4.10;83.50;;;;;;5058279;28;20036;-68
2021/12/04 12:11:13;;;;;;;7.97;5.00;;;4.10;81.90;;;;;;5060991;28;20021;-67
2021/12/04 12:13:55;;;;;;;11.52;7.35;;;4.10;78.80;;;;;;5054176;28;20044;-68
2021/12/04 12:16:25;;;;;;;6.70;4.72;;;4.20;80.00;;;;;;5060011;28;20048;-66
2021/12/04 12:19:08;;;;;;;9.40;6.72;;;4.20;77.90;;;;;;5061114;28;20145;-67
2021/12/04 12:21:45;;;;;;;8.18;5.82;;;4.20;78.10;;;;;;5062917;28;20115;-67
2021/12/04 12:33:24;;;;;;;9.30;6.45;;;3.80;73.60;;;;;;5058662;28;20035;-68
2021/12/04 12:36:03;;;;;;;18.38;11.45;;;3.70;75.20;;;;;;5056122;28;20032;-68
2021/12/04 12:38:33;;;;;;;10.27;6.90;;;3.70;76.20;;;;;;5059550;28;20028;-67
2021/12/04 12:41:13;;;;;;;13.15;8.35;;;3.60;75.10;;;;;;5057031;28;20040;-67
2021/12/04 12:44:12;;;;;;;13.00;7.13;;;3.60;76.90;;;;;;5054430;28;20460;-67
2021/12/04 12:46:55;;;;;;;12.35;6.97;;;3.70;76.30;;;;;;5058684;28;20127;-66
2021/12/04 12:49:37;;;;;;;12.95;7.95;;;3.50;76.10;;;;;;5056410;28;20062;-66
2021/12/04 12:52:05;;;;;;;11.13;8.02;;;3.50;77.40;;;;;;5057702;28;20483;-65
2021/12/04 12:54:37;;;;;;;13.00;8.13;;;3.60;77.70;;;;;;5056575;28;20025;-66
2021/12/04 12:57:11;;;;;;;11.25;8.00;;;3.60;78.00;;;;;;5058598;28;20078;-66
2021/12/04 12:59:45;;;;;;;11.68;6.78;;;3.50;78.60;;;;;;5065895;28;20116;-66
2021/12/04 13:13:31;;;;;;;11.07;7.70;;;3.90;78.00;;;;;;5058545;28;20097;-66
2021/12/04 13:16:05;;;;;;;;;;;4.10;78.60;;;;;;5054567;28;20035;-66
2021/12/04 13:18:33;;;;;;;16.63;10.20;;;4.10;77.90;;;;;;5059348;28;20005;-66
2021/12/04 13:21:03;;;;;;;13.32;8.82;;;4.00;78.90;;;;;;5061175;28;20459;-67
2021/12/04 13:23:29;;;;;;;12.07;7.75;;;4.00;79.80;;;;;;5061824;28;20029;-66
2021/12/04 13:26:02;;;;;;;15.13;7.88;;;4.10;79.20;;;;;;5061854;28;20028;-66
2021/12/04 13:28:31;;;;;;;17.77;11.13;;;4.20;78.40;;;;;;5061756;28;20398;-66
2021/12/04 13:31:00;;;;;;;38.78;21.65;;;4.20;77.60;;;;;;5061820;28;20052;-66
2021/12/04 13:33:31;;;;;;;42.25;24.75;;;4.20;76.40;;;;;;5058145;28;20083;-65
2021/12/04 13:35:57;;;;;;;25.42;15.68;;;4.10;77.70;;;;;;5063409;28;20112;-66
2021/12/04 13:38:25;;;;;;;24.52;15.57;;;4.10;78.40;;;;;;5061966;28;20029;-65
2021/12/04 13:40:53;;;;;;;20.02;11.98;;;4.20;78.30;;;;;;5060121;28;20793;-65
2021/12/04 13:43:19;;;;;;;49.60;31.33;;;4.10;77.80;;;;;;5062459;28;20398;-66
2021/12/04 13:45:45;;;;;;;13.85;8.73;;;3.90;78.20;;;;;;5064287;28;20021;-65
2021/12/04 13:48:12;;;;;;;16.13;10.90;;;4.00;77.70;;;;;;5060956;28;20037;-65
2021/12/04 13:53:18;;;;;;;19.08;12.32;;;3.90;78.80;;;;;;5060394;28;20025;-65
2021/12/04 13:55:49;;;;;;;48.63;36.58;;;4.00;78.30;;;;;;5063170;28;20044;-65
2021/12/04 13:58:15;;;;;;;21.67;13.88;;;3.90;78.40;;;;;;5060087;28;20070;-64
2021/12/04 14:00:42;;;;;;;26.63;18.65;;;3.90;79.40;;;;;;5058799;28;20025;-65
2021/12/04 14:03:09;;;;;;;26.52;17.90;;;4.00;79.70;;;;;;5061300;28;20129;-66
2021/12/04 14:05:34;;;;;;;17.20;10.63;;;4.00;79.70;;;;;;5060666;28;20040;-66
2021/12/04 14:08:03;;;;;;;17.20;9.30;;;4.10;81.50;;;;;;5058297;28;20040;-64
2021/12/04 14:10:41;;;;;;;16.10;10.25;;;4.10;80.60;;;;;;5060683;28;20096;-64
2021/12/04 14:13:08;;;;;;;17.33;10.52;;;4.20;80.00;;;;;;5054116;28;20024;-64
2021/12/04 14:15:34;;;;;;;22.35;13.00;;;4.20;79.90;;;;;;5058124;28;20029;-64
2021/12/04 14:18:11;;;;;;;33.70;16.40;;;4.20;79.90;;;;;;5058935;28;20056;-66
2021/12/04 14:20:41;;;;;;;16.88;10.82;;;4.20;81.20;;;;;;5056928;28;20033;-64
2021/12/04 14:23:07;;;;;;;13.13;7.70;;;4.20;81.20;;;;;;5059527;28;20032;-65
2021/12/04 14:25:42;;;;;;;9.13;6.03;;;4.10;81.10;;;;;;5055320;28;20359;-65
2021/12/04 14:28:07;;;;;;;20.30;13.00;;;4.10;81.10;;;;;;5061194;28;20132;-65
2021/12/04 14:30:35;;;;;;;16.63;9.52;;;4.10;81.10;;;;;;5057870;28;20025;-65
2021/12/04 14:33:04;;;;;;;14.50;9.02;;;4.10;81.60;;;;;;5061377;28;20494;-66
2021/12/04 14:35:34;;;;;;;14.95;7.38;;;4.10;81.60;;;;;;5060894;28;20048;-66
2021/12/04 14:38:02;;;;;;;12.52;7.22;;;4.00;82.50;;;;;;5055957;28;20033;-65
2021/12/04 14:40:40;;;;;;;12.38;7.53;;;4.00;82.30;;;;;;5057821;28;20079;-65
2021/12/04 14:43:07;;;;;;;14.45;6.72;;;3.90;83.60;;;;;;5054132;28;20115;-65
2021/12/04 14:45:35;;;;;;;12.73;8.52;;;3.80;83.50;;;;;;5058840;28;20021;-64
2021/12/04 14:48:27;;;;;;;15.60;8.68;;;3.80;82.80;;;;;;5057975;28;20052;-64
2021/12/04 14:51:04;;;;;;;14.00;7.65;;;3.80;82.60;;;;;;5054360;28;20043;-64
2021/12/04 14:53:32;;;;;;;10.68;6.30;;;3.70;84.30;;;;;;5060012;28;20037;-64
2021/12/04 14:55:59;;;;;;;9.18;5.72;;;3.60;85.10;;;;;;5056278;28;20086;-65
2021/12/04 14:58:28;;;;;;;9.05;6.07;;;3.60;85.80;;;;;;5061232;28;20565;-65
2021/12/04 15:01:23;;;;;;;15.35;9.63;;;3.60;84.60;;;;;;5057560;28;20018;-65
2021/12/04 15:03:53;;;;;;;16.45;10.68;;;3.60;84.30;;;;;;5055082;28;20407;-64
2021/12/04 15:06:22;;;;;;;26.88;14.60;;;3.50;84.60;;;;;;5059723;28;20491;-64
2021/12/04 15:08:57;;;;;;;21.17;13.95;;;3.50;85.30;;;;;;5062595;28;20036;-65
2021/12/04 15:11:34;;;;;;;25.80;16.42;;;3.50;86.10;;;;;;5043411;28;20545;-65
2021/12/04 15:14:10;;;;;;;41.13;27.92;;;3.50;86.10;;;;;;5057384;28;20032;-65
2021/12/04 15:16:46;;;;;;;59.80;36.65;;;3.50;86.30;;;;;;5060393;28;20035;-65
2021/12/04 15:19:19;;;;;;;45.35;30.17;;;3.50;86.60;;;;;;5059397;28;20029;-65
2021/12/04 15:21:53;;;;;;;30.92;22.65;;;3.50;86.90;;;;;;5061919;28;20032;-66
2021/12/04 15:24:25;;;;;;;31.38;21.17;;;3.60;87.50;;;;;;5059094;28;20047;-65
2021/12/04 15:26:54;;;;;;;40.63;24.88;;;3.50;88.20;;;;;;5059984;28;20052;-65
2021/12/04 15:29:27;;;;;;;41.80;25.38;;;3.50;88.70;;;;;;5062393;28;20033;-68
2021/12/04 15:31:58;;;;;;;33.60;22.20;;;3.50;89.10;;;;;;5058748;28;20032;-65
2021/12/04 15:34:31;;;;;;;30.85;20.08;;;3.50;90.00;;;;;;5060884;28;20043;-63
2021/12/04 15:37:03;;;;;;;30.48;19.20;;;3.50;90.10;;;;;;5055533;28;20645;-63
2021/12/04 15:39:34;;;;;;;25.67;18.08;;;3.40;90.20;;;;;;5058464;28;20033;-63
2021/12/04 15:47:36;;;;;;;35.88;23.40;;;3.30;90.70;;;;;;5060161;28;20147;-63
2021/12/04 15:53:21;;;;;;;28.23;18.20;;;3.20;91.00;;;;;;5059580;28;20055;-64
2021/12/04 15:55:47;;;;;;;27.30;17.77;;;3.20;91.00;;;;;;5050550;28;20052;-64
2021/12/04 15:58:15;;;;;;;29.05;18.02;;;3.10;91.00;;;;;;5059219;28;20033;-65
2021/12/04 16:00:52;;;;;;;28.02;18.20;;;3.10;91.10;;;;;;5061260;28;20024;-64
2021/12/04 16:03:26;;;;;;;26.45;17.67;;;3.10;91.10;;;;;;5057824;28;20036;-65
2021/12/04 16:05:59;;;;;;;26.23;16.13;;;3.00;91.20;;;;;;5060254;28;20024;-65
2021/12/04 16:08:27;;;;;;;26.23;16.95;;;3.00;91.20;;;;;;5060802;28;20067;-65
2021/12/04 16:10:54;;;;;;;21.75;14.50;;;2.90;91.30;;;;;;5062294;28;20382;-64
2021/12/04 16:13:26;;;;;;;21.05;13.43;;;2.90;91.30;;;;;;5053316;28;20024;-64
2021/12/04 16:15:53;;;;;;;19.08;12.10;;;2.80;91.20;;;;;;5055751;28;20033;-64